Waskesiu Lake, Canada
Current Conditions -  °F | °C
As of 9:00 PM on Monday 26 Jan 2015 (Local Time) from CYPA Reporting Station
Few Clouds Few Clouds  
Wind Chill: 25°   Ceiling: Unl
Heat Index: 30°   Visibility: 15mi
Dew Point: 27°   Wind: 5mph
Humidity: 86%   Direction: 240°WSW
Pressure: 29.78"   Gusts: NA
Location:  53.92°N, 106.08°W
Report Text: CYPA 270300Z 24004KT 15SM FEW170 M01/M03 A2978 RMK AC1 SLP108
Loading
Personal Weather Stations






























Interactive Weather Map New forecast layout! Learn more

10-Day Weather Forecast

Advertisements
Track Severe Weather on mobile